createdAt,value
2016-07-29T00:00:46.566Z,45.29
2016-07-29T00:02:46.579Z,45
2016-07-29T00:03:45.882Z,44.81
2016-07-29T00:04:45.888Z,44.32
2016-07-29T00:05:46.650Z,45.2
2016-07-29T00:06:45.899Z,45.29
2016-07-29T00:07:46.812Z,45.2
2016-07-29T00:08:46.669Z,44.9
2016-07-29T00:09:45.919Z,45.1
2016-07-29T00:10:46.631Z,45.07
2016-07-29T00:11:46.637Z,44.81
2016-07-29T00:12:45.937Z,45.1
2016-07-29T00:13:46.652Z,44.9
2016-07-29T00:14:46.655Z,45
2016-07-29T00:15:46.663Z,45.2
2016-07-29T00:17:46.677Z,45.2
2016-07-29T00:18:46.682Z,45
2016-07-29T00:19:45.986Z,45.2
2016-07-29T00:20:47.747Z,44.9
2016-07-29T00:21:46.704Z,45.1
2016-07-29T00:22:46.711Z,45.2
2016-07-29T00:23:46.011Z,45.29
2016-07-29T00:24:46.067Z,45.39
2016-07-29T00:25:46.730Z,46.14
2016-07-29T00:26:46.738Z,45.47
2016-07-29T00:27:46.034Z,45.48
2016-07-29T00:28:46.751Z,45.75
2016-07-29T00:29:46.048Z,46.43
2016-07-29T00:30:46.056Z,47.3
2016-07-29T00:31:47.770Z,46.53
2016-07-29T00:32:46.772Z,46.43
2016-07-29T00:33:46.274Z,46.33
2016-07-29T00:34:46.784Z,46.43
2016-07-29T00:35:46.791Z,46.43
2016-07-29T00:36:46.796Z,46.33
2016-07-29T00:37:46.804Z,46.43
2016-07-29T00:38:46.809Z,45.85
2016-07-29T00:39:46.816Z,45.95
2016-07-29T00:40:46.831Z,46.24
2016-07-29T00:41:46.828Z,46.62
2016-07-29T00:42:47.486Z,46.8
2016-07-29T00:43:46.133Z,46.99
2016-07-29T00:44:46.848Z,46.72
2016-07-29T00:45:46.144Z,46.31
2016-07-29T00:46:46.859Z,45.95
2016-07-29T00:47:46.864Z,45.65
2016-07-29T00:48:46.868Z,46.04
2016-07-29T00:49:46.171Z,45.56
2016-07-29T00:50:46.176Z,46.04
2016-07-29T00:51:46.182Z,46.04
2016-07-29T00:52:46.186Z,46.14
2016-07-29T00:53:47.194Z,45.37
2016-07-29T00:55:01.076Z,45.27
2016-07-29T00:55:46.503Z,45.75
2016-07-29T00:56:46.919Z,45.56
2016-07-29T00:57:46.938Z,45.37
2016-07-29T00:58:46.931Z,45.37
2016-07-29T00:59:46.939Z,45.65
2016-07-29T01:00:46.944Z,45.65
2016-07-29T01:01:46.245Z,45.47
2016-07-29T01:02:46.958Z,45.65
2016-07-29T01:03:46.964Z,45.75
2016-07-29T01:04:47.671Z,45.56
2016-07-29T01:05:46.974Z,45.65
2016-07-29T01:06:46.982Z,45.65
2016-07-29T01:07:46.989Z,45.27
2016-07-29T01:08:46.337Z,45.37
2016-07-29T01:09:46.293Z,45.75
2016-07-29T01:10:46.302Z,45.65
2016-07-29T01:11:47.012Z,45.95
2016-07-29T01:12:47.014Z,45.47
2016-07-29T01:13:47.024Z,45.56
2016-07-29T01:14:47.029Z,45.56
2016-07-29T01:15:48.140Z,45.65
2016-07-29T01:16:47.042Z,45.47
2016-07-29T01:17:47.048Z,46.62
2016-07-29T01:18:46.353Z,46.22
2016-07-29T01:19:48.012Z,46.43
2016-07-29T01:20:47.065Z,46.8
2016-07-29T01:21:47.075Z,46.99
2016-07-29T01:22:47.078Z,47.19
2016-07-29T01:23:47.082Z,46.6
2016-07-29T01:24:47.094Z,46.51
2016-07-29T01:25:46.387Z,46.53
2016-07-29T01:26:47.103Z,46.33
2016-07-29T01:27:47.106Z,47.2
2016-07-29T01:28:47.112Z,46.8
2016-07-29T01:29:47.130Z,47.02
2016-07-29T01:30:47.538Z,46.89
2016-07-29T01:31:47.132Z,46.89
2016-07-29T01:32:47.136Z,48.15
2016-07-29T01:33:47.142Z,47.57
2016-07-29T01:34:47.145Z,48.25
2016-07-29T01:35:46.446Z,47.28
2016-07-29T01:36:47.160Z,46.99
2016-07-29T01:37:46.456Z,47.47
2016-07-29T01:38:47.178Z,48.25
2016-07-29T01:39:47.175Z,48.44
2016-07-29T01:40:46.474Z,47.38
2016-07-29T01:41:46.479Z,47.67
2016-07-29T01:42:47.191Z,48.44
2016-07-29T01:43:47.195Z,48.25
2016-07-29T01:44:46.496Z,48.42
2016-07-29T01:45:47.206Z,48.22
2016-07-29T01:46:47.210Z,47.77
2016-07-29T01:47:47.223Z,47.57
2016-07-29T01:48:46.516Z,47.77
2016-07-29T01:49:47.227Z,47.57
2016-07-29T01:50:47.234Z,47.5
2016-07-29T01:51:46.534Z,48.27
2016-07-29T01:52:48.148Z,48.25
2016-07-29T01:53:47.253Z,47.77
2016-07-29T01:55:01.829Z,47.67
2016-07-29T01:55:46.557Z,47.3
2016-07-29T01:56:46.560Z,47.79
2016-07-29T01:57:47.274Z,48.44
2016-07-29T01:58:47.282Z,47.86
2016-07-29T01:59:47.285Z,47.98
2016-07-29T02:00:47.292Z,48.25
2016-07-29T02:01:47.294Z,48.25
2016-07-29T02:02:46.599Z,48.15
2016-07-29T02:03:46.601Z,48.25
2016-07-29T02:04:46.606Z,48.25
2016-07-29T02:05:46.621Z,48.15
2016-07-29T02:06:47.325Z,48.44
2016-07-29T02:07:46.625Z,48.61
2016-07-29T02:08:47.343Z,49
2016-07-29T02:09:47.345Z,48.54
2016-07-29T02:10:47.348Z,48.25
2016-07-29T02:11:47.351Z,48.54
2016-07-29T02:12:47.360Z,48.74
2016-07-29T02:13:47.363Z,48.74
2016-07-29T02:14:48.384Z,48.15
2016-07-29T02:15:47.472Z,48.25
2016-07-29T02:16:46.875Z,48.35
2016-07-29T02:17:46.679Z,48.25
2016-07-29T02:18:46.686Z,48.06
2016-07-29T02:19:47.398Z,48.18
2016-07-29T02:20:46.697Z,48.06
2016-07-29T02:21:46.703Z,48.44
2016-07-29T02:22:47.414Z,48.44
2016-07-29T02:23:46.713Z,47.96
2016-07-29T02:24:46.719Z,48.35
2016-07-29T02:25:47.827Z,48.64
2016-07-29T02:26:46.732Z,47.77
2016-07-29T02:27:46.739Z,48.25
2016-07-29T02:28:47.453Z,48.18
2016-07-29T02:29:47.454Z,48.25
2016-07-29T02:30:47.462Z,48.44
2016-07-29T02:31:46.760Z,48.18
2016-07-29T02:32:47.475Z,48.18
2016-07-29T02:33:46.775Z,48.18
2016-07-29T02:34:46.781Z,47.79
2016-07-29T02:35:47.495Z,48.37
2016-07-29T02:36:48.250Z,48.37
2016-07-29T02:37:47.507Z,48.47
2016-07-29T02:38:46.811Z,48.93
2016-07-29T02:39:46.812Z,49.49
2016-07-29T02:40:47.523Z,48.81
2016-07-29T02:41:46.823Z,48.71
2016-07-29T02:42:47.536Z,48.35
2016-07-29T02:43:46.833Z,48.93
2016-07-29T02:44:46.839Z,49.41
2016-07-29T02:45:46.850Z,49.51
2016-07-29T02:46:47.560Z,48.25
2016-07-29T02:47:47.864Z,48.15
2016-07-29T02:48:46.866Z,48.15
2016-07-29T02:49:47.578Z,47.77
2016-07-29T02:50:47.583Z,48.66
2016-07-29T02:51:47.590Z,49.12
2016-07-29T02:52:47.594Z,49.61
2016-07-29T02:53:47.602Z,49.41
2016-07-29T02:54:46.900Z,48.64
2016-07-29T02:55:47.613Z,49.22
2016-07-29T02:56:47.620Z,48.74
2016-07-29T02:57:47.623Z,49.02
2016-07-29T02:58:47.929Z,49.32
2016-07-29T02:59:47.641Z,49
2016-07-29T03:00:48.406Z,49.22
2016-07-29T03:01:47.653Z,49.41
2016-07-29T03:02:47.694Z,49.32
2016-07-29T03:03:47.659Z,49.41
2016-07-29T03:04:47.665Z,48.74
2016-07-29T03:05:46.962Z,48.64
2016-07-29T03:06:47.731Z,48.64
2016-07-29T03:07:46.976Z,48.06
2016-07-29T03:08:47.690Z,48.18
2016-07-29T03:09:46.985Z,48.66
2016-07-29T03:10:47.710Z,48.18
2016-07-29T03:11:48.608Z,48.57
2016-07-29T03:12:47.011Z,48.83
2016-07-29T03:13:47.112Z,48.93
2016-07-29T03:14:47.723Z,49.02
2016-07-29T03:15:47.732Z,49.12
2016-07-29T03:16:47.737Z,48.83
2016-07-29T03:17:47.745Z,49.51
2016-07-29T03:18:47.092Z,49.8
2016-07-29T03:19:47.060Z,49.49
2016-07-29T03:20:47.054Z,49.12
2016-07-29T03:21:47.064Z,49.32
2016-07-29T03:22:48.600Z,49.22
2016-07-29T03:23:47.783Z,49.44
2016-07-29T03:25:47.084Z,49.44
2016-07-29T03:26:47.797Z,49.12
2016-07-29T03:27:47.095Z,49.02
2016-07-29T03:28:47.810Z,49.22
2016-07-29T03:29:47.826Z,48.93
2016-07-29T03:30:47.820Z,49.02
2016-07-29T03:31:47.826Z,49.51
2016-07-29T03:32:47.841Z,49.02
2016-07-29T03:33:47.135Z,49.12
2016-07-29T03:34:47.139Z,49.61
2016-07-29T03:35:48.300Z,49.49
2016-07-29T03:36:47.857Z,50.16
2016-07-29T03:37:47.155Z,49.58
2016-07-29T03:38:47.159Z,49.9
2016-07-29T03:39:47.874Z,49.32
2016-07-29T03:40:47.169Z,48.83
2016-07-29T03:41:47.886Z,48.93
2016-07-29T03:42:47.184Z,49.51
2016-07-29T03:43:47.191Z,49.22
2016-07-29T03:44:47.193Z,49.22
2016-07-29T03:45:47.908Z,49.51
2016-07-29T03:46:47.709Z,49.61
2016-07-29T03:47:47.214Z,49.61
2016-07-29T03:48:49.038Z,49.7
2016-07-29T03:49:47.933Z,48.83
2016-07-29T03:50:47.941Z,49.34
2016-07-29T03:51:47.946Z,49.7
2016-07-29T03:52:47.954Z,48.83
2016-07-29T03:53:47.954Z,49.61
2016-07-29T03:54:47.964Z,49.41
2016-07-29T03:55:47.269Z,49.22
2016-07-29T03:56:47.271Z,49.12
2016-07-29T03:57:47.983Z,49.22
2016-07-29T03:58:47.989Z,49.8
2016-07-29T03:59:48.387Z,49.99
2016-07-29T04:00:48.003Z,49.41
2016-07-29T04:01:48.007Z,49.61
2016-07-29T04:02:47.308Z,49.99
2016-07-29T04:03:48.034Z,50.09
2016-07-29T04:04:48.025Z,50.65
2016-07-29T04:05:47.323Z,50.65
2016-07-29T04:06:48.038Z,50.26
2016-07-29T04:07:48.041Z,50.26
2016-07-29T04:08:48.047Z,50.45
2016-07-29T04:09:48.055Z,50.09
2016-07-29T04:10:48.609Z,50.07
2016-07-29T04:11:48.064Z,49.49
2016-07-29T04:12:48.070Z,49.7
2016-07-29T04:13:47.370Z,49.61
2016-07-29T04:14:47.378Z,49.51
2016-07-29T04:15:48.088Z,48.93
2016-07-29T04:16:47.587Z,49.12
2016-07-29T04:18:48.107Z,50.07
2016-07-29T04:19:47.404Z,50.07
2016-07-29T04:20:47.411Z,49.97
2016-07-29T04:21:47.974Z,50.38
2016-07-29T04:22:47.471Z,50.16
2016-07-29T04:23:48.135Z,50.07
2016-07-29T04:25:02.313Z,49.97
2016-07-29T04:25:47.442Z,49.41
2016-07-29T04:26:48.151Z,49.32
2016-07-29T04:27:48.159Z,49.41
2016-07-29T04:28:47.456Z,49.51
2016-07-29T04:29:48.173Z,50.19
2016-07-29T04:30:49.155Z,50.19
2016-07-29T04:31:48.182Z,50.35
2016-07-29T04:33:48.193Z,50.94
2016-07-29T04:34:48.201Z,51.13
2016-07-29T04:35:48.205Z,51.52
2016-07-29T04:36:47.501Z,51.04
2016-07-29T04:37:47.509Z,50.55
2016-07-29T04:38:47.511Z,50.16
2016-07-29T04:39:48.229Z,49.99
2016-07-29T04:40:47.525Z,49.8
2016-07-29T04:41:47.532Z,50.29
2016-07-29T04:42:48.246Z,50.16
2016-07-29T04:43:48.099Z,50.57
2016-07-29T04:44:48.254Z,50.07
2016-07-29T04:45:49.233Z,50.16
2016-07-29T04:46:48.268Z,50.19
2016-07-29T04:47:48.275Z,50.07
2016-07-29T04:48:48.277Z,50.29
2016-07-29T04:49:48.284Z,50.16
2016-07-29T04:50:48.341Z,50.45
2016-07-29T04:51:47.588Z,50.26
2016-07-29T04:52:48.297Z,50.65
2016-07-29T04:53:48.307Z,49.97
2016-07-29T04:54:48.513Z,49.87
2016-07-29T04:55:48.315Z,50.19
2016-07-29T04:56:47.614Z,50.26
2016-07-29T04:57:47.634Z,49.97
2016-07-29T04:58:48.336Z,50.65
2016-07-29T04:59:48.340Z,50.45
2016-07-29T05:00:47.644Z,50.19
2016-07-29T05:01:48.350Z,50.48
2016-07-29T05:02:48.358Z,50.38
2016-07-29T05:03:48.361Z,50.16
2016-07-29T05:04:48.366Z,50.96
2016-07-29T05:05:48.575Z,50.65
2016-07-29T05:06:48.381Z,51.13
2016-07-29T05:07:47.681Z,51.13
2016-07-29T05:08:47.686Z,51.04
2016-07-29T05:09:48.397Z,50.74
2016-07-29T05:10:48.401Z,50.35
2016-07-29T05:11:48.410Z,50.16
2016-07-29T05:12:47.707Z,49.8
2016-07-29T05:13:47.717Z,50.09
2016-07-29T05:14:47.716Z,50.48
2016-07-29T05:15:48.431Z,50.16
2016-07-29T05:16:48.487Z,50.16
2016-07-29T05:17:48.444Z,50.35
2016-07-29T05:18:49.247Z,50.87
2016-07-29T05:19:47.797Z,51.32
2016-07-29T05:20:47.753Z,50.84
2016-07-29T05:21:48.462Z,50.74
2016-07-29T05:22:47.763Z,50.94
2016-07-29T05:23:48.479Z,50.84
2016-07-29T05:24:47.825Z,50.35
2016-07-29T05:25:48.488Z,50.35
2016-07-29T05:26:48.495Z,49.8
2016-07-29T05:27:47.793Z,50.09
2016-07-29T05:28:47.802Z,50.29
2016-07-29T05:29:48.755Z,50.87
2016-07-29T05:30:48.519Z,50.45
2016-07-29T05:31:47.865Z,49.99
2016-07-29T05:32:48.529Z,50.29
2016-07-29T05:33:47.828Z,50.09
2016-07-29T05:34:48.543Z,49.7
2016-07-29T05:35:47.842Z,50.09
2016-07-29T05:36:47.848Z,49.8
2016-07-29T05:37:48.558Z,50.09
2016-07-29T05:38:47.857Z,49.51
2016-07-29T05:39:48.573Z,49.8
2016-07-29T05:40:48.722Z,50.09
2016-07-29T05:41:47.878Z,50.19
2016-07-29T05:42:48.593Z,50.77
2016-07-29T05:43:48.596Z,50.87
2016-07-29T05:44:47.896Z,50.29
2016-07-29T05:45:47.905Z,50.67
2016-07-29T05:46:48.615Z,49.9
2016-07-29T05:47:48.621Z,50.09
2016-07-29T05:48:47.922Z,50.87
2016-07-29T05:49:48.640Z,51.16
2016-07-29T05:50:48.640Z,50.74
2016-07-29T05:51:48.798Z,50.67
2016-07-29T05:52:48.653Z,50.65
2016-07-29T05:53:49.283Z,50.74
2016-07-29T05:54:48.665Z,50.48
2016-07-29T05:55:48.675Z,50.67
2016-07-29T05:56:48.676Z,50.57
2016-07-29T05:57:48.681Z,50.38
2016-07-29T05:58:47.981Z,50.19
2016-07-29T05:59:48.691Z,49.99
2016-07-29T06:00:48.700Z,49.61
2016-07-29T06:01:47.999Z,49.12
2016-07-29T06:02:48.252Z,49.15
2016-07-29T06:03:48.726Z,49.44
2016-07-29T06:04:49.576Z,49.34
2016-07-29T06:05:48.729Z,49.82
2016-07-29T06:06:48.735Z,49.82
2016-07-29T06:07:48.089Z,49.82
2016-07-29T06:08:48.750Z,50.19
2016-07-29T06:09:48.768Z,50.09
2016-07-29T06:10:48.057Z,49.92
2016-07-29T06:11:48.770Z,49.8
2016-07-29T06:12:48.774Z,50.09
2016-07-29T06:13:48.787Z,50.09
2016-07-29T06:14:48.791Z,49.8
2016-07-29T06:15:49.646Z,49.8
2016-07-29T06:16:48.094Z,49.05
2016-07-29T06:17:48.808Z,49.15
2016-07-29T06:18:48.814Z,49.24
2016-07-29T06:19:48.124Z,48.69
2016-07-29T06:20:48.839Z,48.97
2016-07-29T06:21:48.128Z,49.15
2016-07-29T06:22:48.839Z,49.24
2016-07-29T06:23:48.850Z,49.54
2016-07-29T06:24:48.857Z,49.24
2016-07-29T06:25:48.152Z,48.95
2016-07-29T06:26:49.265Z,48.85
2016-07-29T06:27:48.167Z,49.34
2016-07-29T06:28:48.173Z,48.85
2016-07-29T06:29:48.891Z,49.73
2016-07-29T06:30:48.893Z,48.95
2016-07-29T06:31:48.913Z,48.85
2016-07-29T06:32:48.926Z,48.66
2016-07-29T06:33:48.227Z,49.34
2016-07-29T06:34:48.220Z,49.46
2016-07-29T06:35:48.222Z,49.44
2016-07-29T06:36:48.937Z,49.34
2016-07-29T06:37:49.491Z,49.44
2016-07-29T06:38:48.957Z,49.27
2016-07-29T06:39:48.269Z,49.82
2016-07-29T06:40:48.979Z,49.63
2016-07-29T06:41:48.988Z,49.44
2016-07-29T06:42:48.994Z,49.07
2016-07-29T06:43:48.987Z,49.27
2016-07-29T06:44:49.007Z,48.39
2016-07-29T06:45:49.014Z,49.46
2016-07-29T06:46:48.302Z,49.37
2016-07-29T06:47:49.019Z,49.17
2016-07-29T06:48:48.867Z,49.37
2016-07-29T06:49:48.329Z,49.07
2016-07-29T06:50:50.172Z,48.88
2016-07-29T06:51:49.049Z,49.37
2016-07-29T06:53:49.114Z,49.37
2016-07-29T06:54:48.362Z,49.37
2016-07-29T06:55:48.374Z,48.69
2016-07-29T06:56:49.082Z,48.59
2016-07-29T06:57:48.392Z,48.59
2016-07-29T06:58:49.101Z,48.88
2016-07-29T06:59:49.206Z,48.69
2016-07-29T07:00:49.117Z,48.78
2016-07-29T07:01:49.907Z,48.78
2016-07-29T07:02:49.141Z,48.88
2016-07-29T07:03:49.188Z,48.49
2016-07-29T07:04:48.439Z,48.59
2016-07-29T07:05:48.447Z,48.39
2016-07-29T07:06:49.158Z,49.39
2016-07-29T07:07:49.168Z,48.88
2016-07-29T07:08:48.468Z,49.17
2016-07-29T07:09:48.481Z,48.88
2016-07-29T07:10:48.484Z,49.46
2016-07-29T07:11:48.487Z,48.97
2016-07-29T07:12:48.498Z,48.78
2016-07-29T07:13:48.505Z,48.69
2016-07-29T07:14:48.665Z,48.78
2016-07-29T07:15:48.519Z,48.78
2016-07-29T07:16:49.234Z,49.27
2016-07-29T07:17:48.532Z,49.27
2016-07-29T07:18:49.247Z,49.07
2016-07-29T07:19:48.546Z,49.46
2016-07-29T07:20:49.261Z,49.05
2016-07-29T07:21:48.574Z,48.97
2016-07-29T07:22:49.273Z,48.59
2016-07-29T07:23:48.574Z,49.46
2016-07-29T07:24:48.585Z,49.37
2016-07-29T07:25:49.303Z,48.97
2016-07-29T07:26:48.595Z,48.1
2016-07-29T07:27:49.321Z,48.61
2016-07-29T07:28:49.317Z,48.59
2016-07-29T07:29:49.325Z,48.61
2016-07-29T07:30:48.626Z,48.88
2016-07-29T07:31:49.340Z,48.39
2016-07-29T07:32:48.639Z,48.32
2016-07-29T07:33:49.351Z,48.32
2016-07-29T07:34:50.111Z,48.61
2016-07-29T07:35:49.368Z,48.22
2016-07-29T07:36:49.434Z,48.03
2016-07-29T07:37:49.391Z,48.32
2016-07-29T07:38:49.394Z,48.42
2016-07-29T07:39:49.397Z,48.22
2016-07-29T07:40:49.405Z,48.03
2016-07-29T07:41:49.413Z,47.83
2016-07-29T07:42:49.422Z,47.93
2016-07-29T07:43:49.430Z,48.52
2016-07-29T07:44:48.734Z,48.13
2016-07-29T07:45:49.741Z,48.52
2016-07-29T07:46:49.456Z,48.2
2016-07-29T07:47:49.461Z,48.61
2016-07-29T07:48:48.762Z,48.1
2016-07-29T07:49:50.228Z,48.71
2016-07-29T07:50:49.487Z,48.32
2016-07-29T07:51:49.493Z,48.13
2016-07-29T07:52:49.503Z,48.22
2016-07-29T07:53:49.512Z,48.39
2016-07-29T07:54:49.522Z,48.3
2016-07-29T07:55:49.523Z,48.3
2016-07-29T07:56:48.825Z,48.3
2016-07-29T07:57:49.542Z,48.3
2016-07-29T07:58:49.548Z,48.71
2016-07-29T07:59:48.846Z,48.52
2016-07-29T08:00:50.414Z,48.52
2016-07-29T08:01:49.570Z,48.59
2016-07-29T08:02:48.869Z,48.78
2016-07-29T08:03:48.879Z,48.88
2016-07-29T08:04:49.594Z,49.49
2016-07-29T08:05:49.598Z,49.1
2016-07-29T08:06:48.898Z,49.39
2016-07-29T08:07:48.960Z,48.8
2016-07-29T08:08:49.620Z,49.46
2016-07-29T08:09:49.676Z,49.07
2016-07-29T08:10:48.928Z,49.27
2016-07-29T08:11:48.935Z,49.27
2016-07-29T08:12:49.648Z,49.27
2016-07-29T08:13:48.946Z,49.37
2016-07-29T08:14:49.712Z,49.17
2016-07-29T08:15:49.667Z,49.19
2016-07-29T08:16:49.673Z,48.69
2016-07-29T08:17:49.683Z,49.46
2016-07-29T08:18:49.689Z,49.49
2016-07-29T08:19:48.990Z,49.27
2016-07-29T08:20:49.045Z,49.46
2016-07-29T08:21:49.711Z,48.61
2016-07-29T08:22:50.267Z,49.1
2016-07-29T08:23:49.015Z,49.49
2016-07-29T08:24:49.025Z,49.19
2016-07-29T08:25:49.790Z,48.8
2016-07-29T08:26:49.039Z,49.19
2016-07-29T08:27:49.755Z,48.9
2016-07-29T08:28:49.761Z,48.8
2016-07-29T08:29:49.780Z,49.58
2016-07-29T08:30:49.067Z,49.19
2016-07-29T08:31:49.375Z,49.46
2016-07-29T08:32:49.841Z,49.27
2016-07-29T08:33:50.749Z,49.56
2016-07-29T08:34:49.108Z,49.17
2016-07-29T08:35:49.104Z,49.1
2016-07-29T08:36:49.815Z,49.19
2016-07-29T08:37:49.119Z,49.85
2016-07-29T08:38:49.834Z,49.85
2016-07-29T08:39:49.838Z,49.77
2016-07-29T08:40:49.151Z,49.77
2016-07-29T08:41:49.855Z,49.85
2016-07-29T08:42:49.151Z,49.85
2016-07-29T08:43:49.159Z,49.58
2016-07-29T08:44:50.376Z,50.07
2016-07-29T08:45:49.884Z,50.14
2016-07-29T08:46:49.887Z,50.53
2016-07-29T08:47:49.896Z,50.53
2016-07-29T08:48:49.903Z,51.4
2016-07-29T08:49:49.909Z,51.28
2016-07-29T08:50:49.916Z,51.79
2016-07-29T08:51:49.920Z,51.76
2016-07-29T08:52:49.270Z,51.57
2016-07-29T08:53:49.933Z,52.44
2016-07-29T08:55:04.111Z,51.47
2016-07-29T08:55:49.242Z,51.28
2016-07-29T08:56:50.004Z,51.59
2016-07-29T08:57:49.961Z,51.98
2016-07-29T08:58:49.967Z,51.37
2016-07-29T08:59:49.972Z,52.28
2016-07-29T09:00:49.980Z,52.06
2016-07-29T09:01:49.985Z,51.86
2016-07-29T09:02:49.999Z,52.08
2016-07-29T09:04:49.297Z,52.08
2016-07-29T09:05:50.012Z,52.28
2016-07-29T09:06:50.968Z,52.25
2016-07-29T09:07:50.026Z,52.44
2016-07-29T09:08:50.028Z,51.96
2016-07-29T09:09:50.037Z,51.69
2016-07-29T09:10:50.043Z,52.47
2016-07-29T09:11:49.341Z,52.44
2016-07-29T09:12:50.060Z,52.47
2016-07-29T09:13:50.067Z,51.5
2016-07-29T09:14:50.119Z,51.5
2016-07-29T09:15:50.082Z,51.59
2016-07-29T09:16:50.128Z,52.66
2016-07-29T09:17:50.559Z,53.05
2016-07-29T09:19:50.102Z,52.64
2016-07-29T09:20:50.110Z,52.54
2016-07-29T09:21:49.410Z,52.15
2016-07-29T09:22:49.412Z,52.54
2016-07-29T09:23:50.126Z,52.54
2016-07-29T09:24:49.423Z,52.73
2016-07-29T09:25:50.141Z,53.22
2016-07-29T09:26:50.148Z,52.83
2016-07-29T09:27:49.450Z,52.44
2016-07-29T09:28:51.060Z,52.25
2016-07-29T09:29:50.165Z,53.02
2016-07-29T09:30:50.171Z,53.02
2016-07-29T09:31:49.470Z,53.8
2016-07-29T09:32:49.477Z,53.89
2016-07-29T09:33:49.483Z,53.29
2016-07-29T09:34:50.200Z,53.02
2016-07-29T09:35:50.200Z,53.51
2016-07-29T09:36:50.209Z,53.41
2016-07-29T09:37:49.507Z,53.12
2016-07-29T09:38:50.222Z,53.02
2016-07-29T09:39:50.227Z,52.44
2016-07-29T09:40:49.524Z,52.54
2016-07-29T09:41:50.243Z,52.25
2016-07-29T09:42:50.245Z,52.34
2016-07-29T09:43:50.595Z,53.12
2016-07-29T09:44:50.256Z,52.15
2016-07-29T09:45:50.266Z,53.22
2016-07-29T09:46:49.565Z,53.51
2016-07-29T09:47:50.276Z,53.12
2016-07-29T09:48:49.572Z,53.31
2016-07-29T09:49:49.578Z,53.22
2016-07-29T09:50:50.308Z,53.22
2016-07-29T09:51:50.296Z,53.22
2016-07-29T09:52:49.597Z,52.93
2016-07-29T09:53:50.312Z,52.34
2016-07-29T09:54:50.666Z,52.06
2016-07-29T09:55:50.339Z,52.15
2016-07-29T09:56:50.327Z,53.12
2016-07-29T09:57:50.387Z,53.41
2016-07-29T09:58:50.342Z,52.64
2016-07-29T09:59:49.643Z,53.31
2016-07-29T10:00:50.353Z,52.73
2016-07-29T10:01:50.425Z,52.44
2016-07-29T10:02:50.365Z,53.41
2016-07-29T10:03:50.437Z,53.22
2016-07-29T10:04:49.674Z,53.22
2016-07-29T10:05:50.986Z,52.93
2016-07-29T10:06:49.685Z,52.64
2016-07-29T10:07:49.691Z,52.83
2016-07-29T10:08:49.697Z,52.64
2016-07-29T10:09:49.706Z,53.02
2016-07-29T10:10:49.710Z,52.93
2016-07-29T10:11:50.424Z,53.41
2016-07-29T10:12:50.429Z,52.64
2016-07-29T10:13:50.436Z,52.83
2016-07-29T10:14:51.030Z,52.54
2016-07-29T10:15:50.446Z,52.54
2016-07-29T10:16:50.304Z,52.34
2016-07-29T10:17:49.755Z,52.54
2016-07-29T10:18:49.761Z,53.05
2016-07-29T10:19:50.523Z,53.41
2016-07-29T10:20:49.773Z,53.31
2016-07-29T10:21:49.778Z,53.51
2016-07-29T10:22:50.496Z,53.51
2016-07-29T10:23:49.793Z,53.12
2016-07-29T10:24:50.505Z,53.89
2016-07-29T10:25:50.512Z,52.93
2016-07-29T10:26:50.521Z,53.31
2016-07-29T10:27:51.177Z,53.51
2016-07-29T10:28:50.532Z,53.51
2016-07-29T10:29:49.831Z,53.31
2016-07-29T10:30:50.548Z,52.93
2016-07-29T10:31:49.845Z,53.31
2016-07-29T10:32:49.903Z,53.51
2016-07-29T10:33:49.911Z,52.83
2016-07-29T10:34:50.572Z,53.8
2016-07-29T10:35:49.874Z,54.28
2016-07-29T10:36:49.880Z,54.77
2016-07-29T10:37:50.598Z,55.06
2016-07-29T10:38:50.800Z,55.42
2016-07-29T10:39:49.900Z,55.62
2016-07-29T10:40:49.924Z,56.49
2016-07-29T10:41:50.620Z,56
2016-07-29T10:42:50.624Z,56.1
2016-07-29T10:43:49.975Z,55.52
2016-07-29T10:44:50.641Z,55.22
2016-07-29T10:45:50.644Z,55.64
2016-07-29T10:46:49.943Z,55.81
2016-07-29T10:47:50.658Z,55.9
2016-07-29T10:48:50.668Z,54.94
2016-07-29T10:49:51.169Z,55.26
2016-07-29T10:50:49.967Z,54.67
2016-07-29T10:51:49.974Z,54.58
2016-07-29T10:52:50.688Z,54.48
2016-07-29T10:53:50.696Z,54.58
2016-07-29T10:55:04.873Z,54.96
2016-07-29T10:55:50.708Z,54.48
2016-07-29T10:56:50.715Z,54.38
2016-07-29T10:57:50.014Z,54.58
2016-07-29T10:58:50.730Z,55.06
2016-07-29T10:59:50.734Z,54.86
2016-07-29T11:00:50.943Z,55.13
2016-07-29T11:01:50.761Z,55.93
2016-07-29T11:02:50.756Z,54.94
2016-07-29T11:03:50.762Z,55.16
2016-07-29T11:04:50.112Z,55.22
2016-07-29T11:05:50.776Z,54.64
2016-07-29T11:06:50.074Z,54.58
2016-07-29T11:07:50.790Z,54.67
2016-07-29T11:08:50.846Z,55.16
2016-07-29T11:09:50.096Z,55.06
2016-07-29T11:10:51.010Z,55.16
2016-07-29T11:11:51.015Z,56.23
2016-07-29T11:12:50.116Z,55.42
2016-07-29T11:13:51.584Z,55.32
2016-07-29T11:14:50.836Z,55.44
2016-07-29T11:15:50.842Z,55.06
2016-07-29T11:16:50.848Z,55.06
2016-07-29T11:17:50.150Z,55.54
2016-07-29T11:18:51.086Z,55.42
2016-07-29T11:19:50.871Z,55.62
2016-07-29T11:20:50.166Z,54.74
2016-07-29T11:21:50.174Z,54.86
2016-07-29T11:22:50.887Z,54.77
2016-07-29T11:23:50.898Z,54.77
2016-07-29T11:24:50.903Z,54.96
2016-07-29T11:25:50.907Z,54.58
2016-07-29T11:26:51.466Z,54.38
2016-07-29T11:27:50.920Z,54.86
2016-07-29T11:28:50.221Z,55.16
2016-07-29T11:29:50.228Z,54.77
2016-07-29T11:30:50.402Z,55.16
2016-07-29T11:31:50.946Z,54.96
2016-07-29T11:32:50.251Z,54.96
2016-07-29T11:33:50.960Z,54.58
2016-07-29T11:34:50.256Z,54.48
2016-07-29T11:35:50.266Z,54.58
2016-07-29T11:36:50.272Z,54.38
2016-07-29T11:37:51.825Z,54.58
2016-07-29T11:38:50.287Z,55.54
2016-07-29T11:39:51.000Z,55.44
2016-07-29T11:40:50.298Z,55.26
2016-07-29T11:41:51.011Z,55.44
2016-07-29T11:42:51.019Z,55.44
2016-07-29T11:43:50.317Z,55.16
2016-07-29T11:44:51.114Z,54.77
2016-07-29T11:45:50.332Z,54.28
2016-07-29T11:46:50.340Z,54.38
2016-07-29T11:47:50.345Z,54.96
2016-07-29T11:48:50.406Z,55.06
2016-07-29T11:49:51.066Z,55.06
2016-07-29T11:50:50.366Z,54.77
2016-07-29T11:51:51.113Z,54.58
2016-07-29T11:52:51.083Z,54.77
2016-07-29T11:53:52.133Z,54.86
2016-07-29T11:54:50.392Z,55.16
2016-07-29T11:55:50.396Z,54.48
2016-07-29T11:56:50.406Z,54.77
2016-07-29T11:57:51.118Z,54.77
2016-07-29T11:58:51.148Z,53.99
2016-07-29T11:59:51.181Z,53.99
2016-07-29T12:00:50.433Z,54.11
2016-07-29T12:01:51.197Z,54.09
2016-07-29T12:02:51.185Z,53.99
2016-07-29T12:03:51.165Z,54.77
2016-07-29T12:04:50.458Z,54.86
2016-07-29T12:05:50.536Z,54.77
2016-07-29T12:06:50.877Z,54.28
2016-07-29T12:07:51.218Z,54.38
2016-07-29T12:08:51.196Z,54.48
2016-07-29T12:09:52.381Z,54.67
2016-07-29T12:10:50.502Z,54.77
2016-07-29T12:11:52.022Z,54.38
2016-07-29T12:12:50.523Z,54.67
2016-07-29T12:13:51.279Z,54.38
2016-07-29T12:14:51.236Z,54.86
2016-07-29T12:15:51.244Z,54.77
2016-07-29T12:16:50.544Z,54.48
2016-07-29T12:17:51.335Z,54.77
2016-07-29T12:18:52.452Z,54.96
2016-07-29T12:19:51.319Z,54.41
2016-07-29T12:20:50.571Z,54.77
2016-07-29T12:21:50.696Z,54.96
2016-07-29T12:22:51.289Z,54.77
2016-07-29T12:23:51.348Z,54.67
2016-07-29T12:24:50.594Z,54.58
2016-07-29T12:25:50.658Z,54.58
2016-07-29T12:26:50.610Z,54.48
2016-07-29T12:27:51.605Z,54.58
2016-07-29T12:28:50.625Z,54.96
2016-07-29T12:29:51.346Z,54.67
2016-07-29T12:30:51.354Z,54.58
2016-07-29T12:31:51.399Z,54.77
2016-07-29T12:32:51.484Z,54.77
2016-07-29T12:33:51.364Z,54.67
2016-07-29T12:34:52.495Z,55.06
2016-07-29T12:35:50.670Z,54.67
2016-07-29T12:36:51.447Z,54.77
2016-07-29T12:37:51.418Z,55.16
2016-07-29T12:38:51.396Z,55.26
2016-07-29T12:39:50.751Z,55.44
2016-07-29T12:40:51.409Z,54.77
2016-07-29T12:41:51.644Z,55.06
2016-07-29T12:42:50.721Z,55.83
2016-07-29T12:43:52.636Z,55.35
2016-07-29T12:44:51.579Z,55.44
2016-07-29T12:45:50.734Z,55.74
2016-07-29T12:46:50.766Z,55.35
2016-07-29T12:47:51.454Z,54.96
2016-07-29T12:48:52.269Z,55.16
2016-07-29T12:49:51.467Z,55.54
2016-07-29T12:50:51.885Z,55.64
2016-07-29T12:51:50.833Z,55.44
2016-07-29T12:52:51.486Z,55.06
2016-07-29T12:53:51.570Z,54.77
2016-07-29T12:54:50.791Z,55.06
2016-07-29T12:55:51.915Z,54.67
2016-07-29T12:56:50.803Z,55.06
2016-07-29T12:57:51.644Z,55.06
2016-07-29T12:58:51.564Z,54.58
2016-07-29T12:59:51.547Z,54.67
2016-07-29T13:00:50.863Z,54.48
2016-07-29T13:01:51.582Z,53.99
2016-07-29T13:02:52.051Z,53.8
2016-07-29T13:03:51.579Z,53.89